AIRPORT METAR

METAR FOR LIMJ
ADDS - METARS form results

(0742 UTC 17 August 2018)
Data provider http://aviationweather.gov/adds/metars/
 
METAR text: LIMJ 170720Z 03004KT 350V070 CAVOK 28/16 Q1014
Conditions at: LIMJ (GENOVA/SESTRI , IT) observed 0720 UTC 17 August 2018
Temperature: 28.0°C (82°F)
Dewpoint: 16.0°C (61°F) [RH = 48%]
Pressure (altimeter): 29.94 inches Hg (1014.0 mb)
Winds: from the NNE (30 degrees) at 5 MPH (4 knots; 2.1 m/s)
Visibility: 6 or more miles (10+ km)
Ceiling: ceiling and visibility are OK
Clouds: unknown
Weather: no significant weather observed at this time

METAR text: LIMJ 170650Z 02004KT 350V070 CAVOK 27/16 Q1014
Conditions at: LIMJ (GENOVA/SESTRI , IT) observed 0650 UTC 17 August 2018
Temperature: 27.0°C (81°F)
Dewpoint: 16.0°C (61°F) [RH = 51%]
Pressure (altimeter): 29.94 inches Hg (1014.0 mb)
Winds: from the NNE (20 degrees) at 5 MPH (4 knots; 2.1 m/s)
Visibility: 6 or more miles (10+ km)
Ceiling: ceiling and visibility are OK
Clouds: unknown
Weather: no significant weather observed at this time

Forecast for: LIMJ (GENOVA/SESTRI , IT)
Text: TAF LIMJ 170500Z 1706/1806 02005KT 9999 SCT040
Forecast period: 0600 UTC 17 August 2018 to 0600 UTC 18 August 2018
Forecast type: FROM: standard forecast or significant change
Winds: from the NNE (20 degrees) at 6 MPH (5 knots; 2.6 m/s)
Visibility: 6 or more miles (10+ km)
Clouds: scattered clouds at 4000 feet AGL
Weather: no significant weather forecast for this period

AIRPORT MAP

 RUNWAY INFORMATION
Runway 10 Runway length 9564 ft Runway width 148 ft
Runway elevation 9 ft Runway displaced threshold 0 ft Runway heading 105
Runway 28 Runway length 9564 ft Runway width 148 ft
Runway elevation 12 ft Runway displaced threshold 528 ft Runway heading 285

 AIRPORT FREQUENCIES
Type APP Name APP Frequency 119.6 MHZ
Type ATIS Name ATIS Frequency 122.825 MHZ
Type TWR Name TWR Frequency 118.6 MHZ

 AIRPORT NEAR NAVIGATION AIDS
Type VOR-DME Name Genova Frequency 112800 KHZ
Type NDB Name Genova Frequency 318 KHZ
Type VOR-DME Name Genova Sestri Frequency 108600 KHZ



© 2017 - Royal Sky Service, All Right Reserved. | Design & Developed by Davide Torresan